Meekatharra, Australia
Current Conditions -  °F | °C
As of 12:00 PM on Sunday 26 Oct 2014 (Local Time) from YMEK Reporting Station
NA  
Wind Chill: 81°   Ceiling: NA
Heat Index: 81°   Visibility: 6mi
Dew Point: 37°   Wind: 12mph
Humidity: 21%   Direction: 140°SE
Pressure: 30.09"   Gusts: NA
Location:  26.59°S, 118.5°E
Report Text: YMEK 260400Z AUTO 14010KT 9999 // ////// 27/03 Q1019
Loading
Personal Weather Stations






























Interactive Weather Map
Tropical Storm Tracking
New forecast layout! Learn more

10-Day Weather Forecast

Advertisements
Track Severe Weather on mobile